Time;durP1;ratioP1;P1;durP2;ratioP2;P2;SDS_P1;SDS_P2;PMS_P1;PMS_P2;Temp;Humidity;BMP_temperature;BMP_pressure;BME280_temperature;BME280_humidity;BME280_pressure;Samples;Min_cycle;Max_cycle;Signal;HPM_P1;HPM_P2
2022/04/30 00:00:51;;;;;;;9.80;5.55;;;;;;;;;;4722880;30;20045;-94
2022/04/30 00:03:18;;;;;;;7.47;5.28;;;;;;;;;;4708339;30;20063;-95
2022/04/30 00:05:44;;;;;;;11.30;5.47;;;;;;;;;;4707890;30;20053;-94
2022/04/30 00:08:11;;;;;;;8.07;4.95;;;;;;;;;;4707363;30;20087;-94
2022/04/30 00:10:37;;;;;;;12.30;6.35;;;;;;;;;;4706774;30;20053;-94
2022/04/30 00:13:06;;;;;;;8.85;5.47;;;;;;;;;;4707257;30;20053;-95
2022/04/30 00:15:34;;;;;;;15.70;5.35;;;;;;;;;;4708245;30;20091;-94
2022/04/30 00:18:00;;;;;;;8.02;5.55;;;;;;;;;;4708227;30;20059;-94
2022/04/30 00:20:26;;;;;;;9.60;5.88;;;;;;;;;;4706056;30;20053;-94
2022/04/30 00:22:55;;;;;;;11.23;5.95;;;;;;;;;;4708143;30;20134;-93
2022/04/30 00:25:23;;;;;;;10.02;5.75;;;;;;;;;;4707372;30;20041;-95
2022/04/30 00:27:52;;;;;;;12.95;5.65;;;;;;;;;;4707787;30;20064;-94
2022/04/30 00:30:20;;;;;;;8.02;5.45;;;;;;;;;;4706973;30;20053;-94
2022/04/30 00:32:48;;;;;;;9.07;5.95;;;;;;;;;;4720448;30;20060;-94
2022/04/30 00:35:16;;;;;;;9.88;5.55;;;;;;;;;;4706512;30;20057;-92
2022/04/30 00:37:42;;;;;;;7.88;5.05;;;;;;;;;;4706235;30;20056;-93
2022/04/30 00:40:09;;;;;;;12.00;6.20;;;;;;;;;;4706700;30;20064;-94
2022/04/30 00:42:35;;;;;;;8.27;5.53;;;;;;;;;;4707388;30;20057;-94
2022/04/30 00:45:01;;;;;;;11.25;7.07;;;;;;;;;;4706085;30;20102;-95
2022/04/30 00:47:28;;;;;;;7.57;5.40;;;;;;;;;;4706030;30;20627;-94
2022/04/30 00:49:54;;;;;;;8.77;5.15;;;;;;;;;;4707224;30;20110;-93
2022/04/30 00:52:25;;;;;;;7.88;5.95;;;;;;;;;;4707473;30;20059;-93
2022/04/30 00:54:53;;;;;;;10.45;6.20;;;;;;;;;;4707361;30;20499;-94
2022/04/30 00:57:26;;;;;;;9.45;6.30;;;;;;;;;;4707981;30;20053;-93
2022/04/30 00:59:59;;;;;;;9.63;6.00;;;;;;;;;;4706533;30;20057;-94
2022/04/30 01:02:28;;;;;;;11.23;6.55;;;;;;;;;;4706663;30;20118;-94
2022/04/30 01:04:55;;;;;;;11.18;5.22;;;;;;;;;;4706581;30;20103;-94
2022/04/30 01:07:21;;;;;;;7.60;5.80;;;;;;;;;;4707089;30;20184;-93
2022/04/30 01:09:48;;;;;;;8.07;4.65;;;;;;;;;;4707575;30;20060;-92
2022/04/30 01:12:15;;;;;;;11.48;5.93;;;;;;;;;;4707368;30;20057;-92
2022/04/30 01:14:42;;;;;;;9.55;5.28;;;;;;;;;;4705955;30;20060;-92
2022/04/30 01:17:09;;;;;;;10.77;5.57;;;;;;;;;;4705697;30;20053;-93
2022/04/30 01:19:43;;;;;;;8.95;5.13;;;;;;;;;;4704454;30;20543;-93
2022/04/30 01:22:12;;;;;;;13.60;6.28;;;;;;;;;;4706306;30;20060;-92
2022/04/30 01:24:38;;;;;;;12.40;6.47;;;;;;;;;;4706860;30;20057;-93
2022/04/30 01:27:08;;;;;;;14.65;4.97;;;;;;;;;;4705985;30;20066;-92
2022/04/30 01:29:36;;;;;;;11.00;5.10;;;;;;;;;;4704301;30;20064;-93
2022/04/30 01:37:38;;;;;;;6.70;5.53;;;;;;;;;;4718623;30;20508;-92
2022/04/30 01:40:04;;;;;;;8.77;5.75;;;;;;;;;;4705284;30;20060;-92
2022/04/30 01:42:31;;;;;;;9.27;5.15;;;;;;;;;;4705633;30;20080;-91
2022/04/30 01:44:58;;;;;;;17.75;5.78;;;;;;;;;;4709053;30;20132;-93
2022/04/30 01:47:25;;;;;;;11.98;6.03;;;;;;;;;;4708579;30;20701;-92
2022/04/30 01:49:51;;;;;;;8.65;5.78;;;;;;;;;;4708266;30;20053;-92
2022/04/30 01:52:18;;;;;;;7.07;5.43;;;;;;;;;;4708650;30;20052;-92
2022/04/30 01:54:44;;;;;;;9.90;5.60;;;;;;;;;;4707401;30;20085;-91
2022/04/30 01:57:12;;;;;;;7.78;5.22;;;;;;;;;;4709097;30;20049;-91
2022/04/30 01:59:39;;;;;;;8.55;6.15;;;;;;;;;;4708627;30;20088;-91
2022/04/30 02:02:06;;;;;;;12.80;6.28;;;;;;;;;;4708678;30;20579;-91
2022/04/30 02:04:34;;;;;;;8.40;6.05;;;;;;;;;;4707654;30;20088;-91
2022/04/30 02:07:01;;;;;;;10.45;5.60;;;;;;;;;;4706979;30;20048;-92
2022/04/30 02:09:28;;;;;;;8.15;5.95;;;;;;;;;;4707731;30;20068;-92
2022/04/30 02:11:59;;;;;;;10.57;7.00;;;;;;;;;;4707790;30;20057;-92
2022/04/30 02:14:26;;;;;;;11.25;6.13;;;;;;;;;;4708605;30;20049;-92
2022/04/30 02:16:52;;;;;;;15.88;7.78;;;;;;;;;;4707474;30;20411;-92
2022/04/30 02:19:18;;;;;;;8.13;5.75;;;;;;;;;;4707501;30;20098;-92
2022/04/30 02:21:44;;;;;;;7.45;5.63;;;;;;;;;;4706760;30;20052;-92
2022/04/30 02:24:11;;;;;;;10.60;5.35;;;;;;;;;;4709466;30;20056;-92
2022/04/30 02:26:37;;;;;;;7.68;5.70;;;;;;;;;;4707586;30;20140;-92
2022/04/30 02:29:03;;;;;;;9.15;4.95;;;;;;;;;;4707748;30;20053;-93
2022/04/30 02:31:43;;;;;;;8.32;5.60;;;;;;;;;;4711123;30;20049;-93
2022/04/30 02:34:09;;;;;;;16.17;5.88;;;;;;;;;;4708446;30;20056;-93
2022/04/30 02:36:36;;;;;;;10.23;6.63;;;;;;;;;;4709369;30;20092;-95
2022/04/30 02:39:02;;;;;;;9.85;5.53;;;;;;;;;;4708114;30;20045;-94
2022/04/30 02:41:29;;;;;;;13.20;6.07;;;;;;;;;;4707635;30;20061;-94
2022/04/30 02:43:57;;;;;;;9.13;5.75;;;;;;;;;;4710023;30;20079;-94
2022/04/30 02:46:24;;;;;;;6.72;5.70;;;;;;;;;;4708626;30;20077;-94
2022/04/30 02:48:53;;;;;;;10.50;6.22;;;;;;;;;;4709160;30;20053;-94
2022/04/30 02:51:30;;;;;;;10.98;6.25;;;;;;;;;;4709681;30;20049;-94
2022/04/30 02:53:57;;;;;;;10.20;6.03;;;;;;;;;;4708158;30;20444;-94
2022/04/30 03:02:00;;;;;;;8.95;6.05;;;;;;;;;;4707022;30;20140;-94
2022/04/30 03:04:26;;;;;;;10.05;5.75;;;;;;;;;;4708990;30;20119;-94
2022/04/30 03:06:52;;;;;;;7.50;5.82;;;;;;;;;;4708431;30;20064;-93
2022/04/30 03:09:20;;;;;;;10.23;5.88;;;;;;;;;;4706893;30;20061;-94
2022/04/30 03:11:48;;;;;;;9.15;5.80;;;;;;;;;;4706802;30;20084;-94
2022/04/30 03:14:15;;;;;;;9.27;5.78;;;;;;;;;;4707145;30;20087;-92
2022/04/30 03:22:13;;;;;;;9.35;6.10;;;;;;;;;;4707190;30;20049;-93
2022/04/30 03:24:40;;;;;;;9.45;6.53;;;;;;;;;;4706524;30;20611;-93
2022/04/30 03:27:06;;;;;;;8.48;6.28;;;;;;;;;;4708409;30;20061;-93
2022/04/30 03:29:41;;;;;;;10.05;6.25;;;;;;;;;;4707315;30;20072;-94
2022/04/30 03:32:08;;;;;;;15.98;6.38;;;;;;;;;;4706826;30;20060;-93
2022/04/30 03:34:34;;;;;;;10.75;6.88;;;;;;;;;;4706120;30;20492;-93
2022/04/30 03:37:00;;;;;;;8.43;6.28;;;;;;;;;;4708353;30;20423;-94
2022/04/30 03:39:26;;;;;;;10.90;6.35;;;;;;;;;;4708460;30;20057;-93
2022/04/30 03:41:53;;;;;;;7.82;6.95;;;;;;;;;;4722106;30;20056;-94
2022/04/30 03:44:19;;;;;;;10.65;6.78;;;;;;;;;;4707392;30;20057;-95
2022/04/30 03:46:48;;;;;;;11.57;7.28;;;;;;;;;;4707410;30;20152;-95
2022/04/30 03:49:14;;;;;;;8.90;5.97;;;;;;;;;;4706952;30;20506;-96
2022/04/30 03:51:40;;;;;;;9.25;6.75;;;;;;;;;;4707539;30;20049;-95
2022/04/30 03:54:06;;;;;;;8.45;6.18;;;;;;;;;;4708630;30;20246;-94
2022/04/30 03:56:32;;;;;;;14.48;6.50;;;;;;;;;;4706519;30;20045;-95
2022/04/30 03:58:58;;;;;;;8.85;7.10;;;;;;;;;;4706789;30;20099;-92
2022/04/30 04:01:25;;;;;;;10.18;6.93;;;;;;;;;;4706121;30;20056;-92
2022/04/30 04:03:53;;;;;;;12.48;6.28;;;;;;;;;;4708238;30;20077;-93
2022/04/30 04:06:20;;;;;;;8.20;6.35;;;;;;;;;;4705327;30;20049;-93
2022/04/30 04:09:02;;;;;;;10.70;7.18;;;;;;;;;;4706009;30;20389;-95
2022/04/30 04:11:31;;;;;;;9.50;6.97;;;;;;;;;;4706640;30;20500;-94
2022/04/30 04:19:30;;;;;;;14.52;6.60;;;;;;;;;;4720830;30;20144;-94
2022/04/30 04:21:56;;;;;;;9.60;6.63;;;;;;;;;;4705886;30;20067;-94
2022/04/30 04:27:07;;;;;;;12.00;7.47;;;;;;;;;;4720721;30;20081;-95
2022/04/30 04:29:36;;;;;;;10.70;6.53;;;;;;;;;;4708777;30;20466;-95
2022/04/30 04:32:03;;;;;;;16.88;7.00;;;;;;;;;;4708076;30;20049;-96
2022/04/30 04:34:29;;;;;;;15.18;9.50;;;;;;;;;;4707980;30;20466;-94
2022/04/30 04:36:55;;;;;;;11.25;6.68;;;;;;;;;;4705552;30;20170;-94
2022/04/30 04:39:26;;;;;;;7.10;6.03;;;;;;;;;;4721248;30;20064;-94
2022/04/30 04:41:52;;;;;;;12.88;7.57;;;;;;;;;;4706504;30;20072;-94
2022/04/30 04:44:21;;;;;;;9.57;6.75;;;;;;;;;;4706515;30;20057;-94
2022/04/30 04:46:47;;;;;;;13.52;6.72;;;;;;;;;;4705060;30;20049;-95
2022/04/30 04:49:14;;;;;;;16.20;7.25;;;;;;;;;;4708357;30;20060;-96
2022/04/30 04:51:40;;;;;;;10.82;6.60;;;;;;;;;;4708150;30;20154;-93
2022/04/30 04:54:06;;;;;;;15.13;6.47;;;;;;;;;;4707358;30;20583;-94
2022/04/30 04:56:32;;;;;;;12.65;7.10;;;;;;;;;;4706330;30;20049;-95
2022/04/30 04:58:59;;;;;;;12.50;6.55;;;;;;;;;;4707281;30;20068;-96
2022/04/30 05:01:35;;;;;;;;;;;;;;;;;;;;;
2022/04/30 05:04:02;;;;;;;9.88;6.78;;;;;;;;;;4720373;30;20108;-95
2022/04/30 05:06:30;;;;;;;11.48;6.45;;;;;;;;;;4707237;30;20099;-96
2022/04/30 05:08:56;;;;;;;9.57;6.75;;;;;;;;;;4707336;30;20099;-95
2022/04/30 05:11:22;;;;;;;16.40;7.22;;;;;;;;;;4707675;30;20140;-94
2022/04/30 05:13:49;;;;;;;10.50;7.13;;;;;;;;;;4705985;30;20053;-95
2022/04/30 05:16:15;;;;;;;16.08;6.65;;;;;;;;;;4705293;30;20056;-94
2022/04/30 05:18:41;;;;;;;11.93;7.65;;;;;;;;;;4708867;30;20139;-95
2022/04/30 05:21:08;;;;;;;11.10;7.03;;;;;;;;;;4708893;30;20522;-94
2022/04/30 05:23:34;;;;;;;10.18;6.72;;;;;;;;;;4711370;30;20053;-94
2022/04/30 05:26:00;;;;;;;10.90;7.28;;;;;;;;;;4708560;30;20146;-95
2022/04/30 05:28:26;;;;;;;12.45;7.35;;;;;;;;;;4710298;30;20048;-94
2022/04/30 05:30:56;;;;;;;8.30;6.88;;;;;;;;;;4709431;30;20045;-93
2022/04/30 05:33:25;;;;;;;15.65;8.38;;;;;;;;;;4714179;30;20095;-94
2022/04/30 05:35:57;;;;;;;8.90;6.93;;;;;;;;;;4708272;30;20084;-94
2022/04/30 05:38:26;;;;;;;8.48;6.50;;;;;;;;;;4709213;30;20053;-94
2022/04/30 05:40:55;;;;;;;9.65;6.78;;;;;;;;;;4709912;30;20471;-93
2022/04/30 05:43:23;;;;;;;9.70;7.25;;;;;;;;;;4708694;30;20052;-94
2022/04/30 05:45:50;;;;;;;8.32;6.80;;;;;;;;;;4709642;30;20060;-94
2022/04/30 05:48:16;;;;;;;10.63;6.63;;;;;;;;;;4711034;30;20053;-94
2022/04/30 05:50:42;;;;;;;12.10;7.68;;;;;;;;;;4708672;30;20060;-93
2022/04/30 05:53:14;;;;;;;10.70;7.57;;;;;;;;;;4708817;30;20148;-94
2022/04/30 05:55:43;;;;;;;9.38;7.30;;;;;;;;;;4709848;30;20144;-95
2022/04/30 05:58:09;;;;;;;11.43;8.18;;;;;;;;;;4709492;30;20052;-94
2022/04/30 06:00:35;;;;;;;12.95;7.93;;;;;;;;;;4709904;30;20434;-94
2022/04/30 06:03:01;;;;;;;11.25;7.43;;;;;;;;;;4709891;30;20165;-95
2022/04/30 06:05:30;;;;;;;16.98;7.22;;;;;;;;;;4708158;30;20486;-94
2022/04/30 06:07:56;;;;;;;11.48;7.38;;;;;;;;;;4708148;30;20064;-94
2022/04/30 06:10:22;;;;;;;14.98;7.68;;;;;;;;;;4709303;30;20077;-95
2022/04/30 06:12:49;;;;;;;15.90;8.40;;;;;;;;;;4708817;30;20454;-94
2022/04/30 06:15:16;;;;;;;9.10;7.90;;;;;;;;;;4707275;30;20476;-94
2022/04/30 06:17:42;;;;;;;10.60;7.88;;;;;;;;;;4707896;30;20121;-94
2022/04/30 06:20:09;;;;;;;13.88;8.10;;;;;;;;;;4707819;30;20057;-94
2022/04/30 06:22:36;;;;;;;12.30;7.97;;;;;;;;;;4708231;30;20060;-94
2022/04/30 06:25:05;;;;;;;10.73;8.52;;;;;;;;;;4707577;30;20049;-95
2022/04/30 06:27:34;;;;;;;13.63;8.30;;;;;;;;;;4708503;30;20123;-94
2022/04/30 06:30:00;;;;;;;17.58;7.70;;;;;;;;;;4707069;30;20049;-95
2022/04/30 06:32:27;;;;;;;15.27;8.70;;;;;;;;;;4709812;30;20040;-94
2022/04/30 06:34:53;;;;;;;16.23;9.25;;;;;;;;;;4709540;30;20461;-94
2022/04/30 06:37:20;;;;;;;11.75;8.10;;;;;;;;;;4710196;30;20057;-95
2022/04/30 06:39:46;;;;;;;11.15;7.95;;;;;;;;;;4710411;30;20049;-95
2022/04/30 06:42:15;;;;;;;15.65;8.32;;;;;;;;;;4709734;30;20068;-94
2022/04/30 06:44:41;;;;;;;9.65;7.72;;;;;;;;;;4708417;30;20140;-95
2022/04/30 06:47:07;;;;;;;14.15;7.93;;;;;;;;;;4709462;30;20061;-94
2022/04/30 06:49:33;;;;;;;13.73;8.65;;;;;;;;;;4708888;30;20063;-95
2022/04/30 06:51:59;;;;;;;15.88;7.90;;;;;;;;;;4708630;30;20045;-94
2022/04/30 06:57:16;;;;;;;18.35;8.52;;;;;;;;;;4722786;30;20065;-94
2022/04/30 06:59:44;;;;;;;10.65;8.15;;;;;;;;;;4708252;30;20048;-96
2022/04/30 07:02:18;;;;;;;13.15;6.78;;;;;;;;;;4708867;30;20037;-96
2022/04/30 07:04:46;;;;;;;15.40;7.72;;;;;;;;;;4708150;30;20049;-94
2022/04/30 07:07:13;;;;;;;14.73;8.25;;;;;;;;;;4709240;30;20056;-96
2022/04/30 07:09:39;;;;;;;18.45;7.88;;;;;;;;;;4708195;30;20080;-96
2022/04/30 07:12:14;;;;;;;23.63;10.18;;;;;;;;;;4708122;30;20087;-95
2022/04/30 07:14:42;;;;;;;11.02;7.28;;;;;;;;;;4709924;30;20107;-94
2022/04/30 07:17:09;;;;;;;15.60;7.95;;;;;;;;;;4707077;30;20500;-94
2022/04/30 07:19:40;;;;;;;10.68;7.63;;;;;;;;;;4709049;30;20103;-95
2022/04/30 07:22:15;;;;;;;10.48;6.78;;;;;;;;;;4709526;30;20049;-94
2022/04/30 07:24:55;;;;;;;11.95;8.93;;;;;;;;;;4708510;30;20083;-94
2022/04/30 07:27:24;;;;;;;10.65;7.97;;;;;;;;;;4707914;30;20057;-96
2022/04/30 07:29:54;;;;;;;11.35;8.98;;;;;;;;;;4708275;30;20056;-95
2022/04/30 07:32:24;;;;;;;13.23;9.05;;;;;;;;;;4707837;30;20053;-93
2022/04/30 07:34:54;;;;;;;12.20;7.45;;;;;;;;;;4709063;30;20056;-93
2022/04/30 07:37:25;;;;;;;11.70;6.35;;;;;;;;;;4707810;30;20057;-94
2022/04/30 07:40:12;;;;;;;11.05;6.75;;;;;;;;;;4707450;30;20135;-93
2022/04/30 07:42:57;;;;;;;;;;;;;;;;;;;;;
2022/04/30 07:45:28;;;;;;;17.02;7.20;;;;;;;;;;4723745;30;20117;-95
2022/04/30 07:47:56;;;;;;;8.18;6.28;;;;;;;;;;4709554;30;20416;-94
2022/04/30 07:50:35;;;;;;;10.60;6.53;;;;;;;;;;4708372;30;20056;-94
2022/04/30 07:53:12;;;;;;;9.40;5.85;;;;;;;;;;4707411;30;20127;-94
2022/04/30 07:55:47;;;;;;;7.93;5.63;;;;;;;;;;4708205;30;20092;-93
2022/04/30 07:58:18;;;;;;;8.10;6.07;;;;;;;;;;4708524;30;20064;-93
2022/04/30 08:01:00;;;;;;;8.35;5.88;;;;;;;;;;4707613;30;20053;-93
2022/04/30 08:03:26;;;;;;;10.95;5.32;;;;;;;;;;4706534;30;20506;-93
2022/04/30 08:06:00;;;;;;;8.55;5.35;;;;;;;;;;4706998;30;20067;-93
2022/04/30 08:08:26;;;;;;;10.10;5.97;;;;;;;;;;4708903;30;20055;-93
2022/04/30 10:45:58;;;;;;;11.30;5.75;;;;;;;;;;4807622;24;20061;-95
2022/04/30 11:11:00;;;;;;;9.82;6.25;;;;;;;;;;4720296;30;20061;-95
2022/04/30 11:14:21;;;;;;;11.85;6.28;;;;;;;;;;4708200;24;20184;-93
2022/04/30 11:16:54;;;;;;;12.88;6.22;;;;;;;;;;4751834;30;20052;-95
2022/04/30 11:19:55;;;;;;;;;;;;;;;;;;;;;
2022/04/30 11:25:38;;;;;;;7.97;6.15;;;;;;;;;;5009520;24;20064;-94
2022/04/30 11:28:26;;;;;;;;;;;;;;;;;;;;;
2022/04/30 11:31:12;;;;;;;9.10;6.80;;;;;;;;;;4758409;30;20052;-94
2022/04/30 11:33:53;;;;;;;11.77;7.18;;;;;;;;;;4748951;30;20099;-94
2022/04/30 11:37:00;;;;;;;8.20;6.38;;;;;;;;;;4744671;29;20052;-93
2022/04/30 11:50:10;;;;;;;10.52;7.45;;;;;;;;;;4568720;31;20053;-96
2022/04/30 11:52:45;;;;;;;10.40;6.68;;;;;;;;;;4557997;31;20053;-93
2022/04/30 11:55:20;;;;;;;8.57;7.13;;;;;;;;;;4556411;31;20049;-94
2022/04/30 11:57:59;;;;;;;;;;;;;;;;;;;;;
2022/04/30 12:00:37;;;;;;;15.88;6.97;;;;;;;;;;4555020;31;20049;-95
2022/04/30 12:03:03;;;;;;;10.15;6.32;;;;;;;;;;4556655;31;20383;-95
2022/04/30 12:05:42;;;;;;;7.97;6.53;;;;;;;;;;4555475;31;20476;-94
2022/04/30 12:08:26;;;;;;;11.77;6.47;;;;;;;;;;4554982;31;20054;-94
2022/04/30 12:11:16;;;;;;;9.77;6.43;;;;;;;;;;4556286;31;20050;-95
2022/04/30 12:14:06;;;;;;;7.65;6.85;;;;;;;;;;4512548;31;20062;-96
2022/04/30 12:16:38;;;;;;;7.75;6.50;;;;;;;;;;4541057;31;20137;-95
2022/04/30 12:24:49;;;;;;;8.63;6.40;;;;;;;;;;4586625;31;20060;-94
2022/04/30 12:27:43;;;;;;;8.75;7.18;;;;;;;;;;4662025;30;20061;-96
2022/04/30 12:30:45;;;;;;;9.60;6.70;;;;;;;;;;4705627;30;20054;-96
2022/04/30 12:33:17;;;;;;;11.75;7.15;;;;;;;;;;4690350;30;20505;-95
2022/04/30 12:35:56;;;;;;;9.43;5.80;;;;;;;;;;4690810;30;20100;-94
2022/04/30 12:38:25;;;;;;;11.32;6.80;;;;;;;;;;4691132;30;20108;-94
2022/04/30 12:41:06;;;;;;;10.15;6.75;;;;;;;;;;4693611;30;20088;-94
2022/04/30 12:43:36;;;;;;;8.85;5.47;;;;;;;;;;4701221;30;20056;-94
2022/04/30 12:46:15;;;;;;;;;;;;;;;;;;;;;
2022/04/30 12:48:42;;;;;;;6.32;5.72;;;;;;;;;;4744035;30;20064;-95
2022/04/30 12:51:28;;;;;;;8.02;5.63;;;;;;;;;;4744785;30;20056;-96
2022/04/30 12:54:13;;;;;;;;;;;;;;;;;;;;;
2022/04/30 12:56:53;;;;;;;;;;;;;;;;;;;;;
2022/04/30 12:59:42;;;;;;;7.15;5.38;;;;;;;;;;4709174;30;20053;-95
2022/04/30 13:02:08;;;;;;;11.15;6.32;;;;;;;;;;4709145;30;20156;-96
2022/04/30 13:04:36;;;;;;;7.95;6.50;;;;;;;;;;4709189;30;20076;-94
2022/04/30 13:07:11;;;;;;;9.63;5.93;;;;;;;;;;4706441;30;20063;-96
2022/04/30 13:15:40;;;;;;;7.40;6.57;;;;;;;;;;4709076;30;20499;-96
2022/04/30 13:18:19;;;;;;;10.73;7.32;;;;;;;;;;4712335;30;20057;-95
2022/04/30 13:20:46;;;;;;;7.35;5.40;;;;;;;;;;4711814;30;20048;-96
2022/04/30 13:23:21;;;;;;;10.00;5.63;;;;;;;;;;4709694;30;20060;-95
2022/04/30 13:25:53;;;;;;;8.18;5.15;;;;;;;;;;4710331;30;20068;-96
2022/04/30 13:28:39;;;;;;;8.27;6.15;;;;;;;;;;4710955;30;20088;-94
2022/04/30 13:31:16;;;;;;;10.10;5.85;;;;;;;;;;4743101;30;20110;-94
2022/04/30 13:33:47;;;;;;;9.93;6.22;;;;;;;;;;4758881;29;20063;-94
2022/04/30 13:36:23;;;;;;;8.27;6.18;;;;;;;;;;4759823;30;20093;-94
2022/04/30 13:39:05;;;;;;;12.32;7.20;;;;;;;;;;4758714;30;20091;-94
2022/04/30 13:41:34;;;;;;;12.30;7.15;;;;;;;;;;4762460;30;20059;-94
2022/04/30 13:44:08;;;;;;;9.38;6.60;;;;;;;;;;4760969;30;20063;-96
2022/04/30 13:46:34;;;;;;;8.52;6.15;;;;;;;;;;4761226;30;20097;-95
2022/04/30 13:49:10;;;;;;;8.48;6.57;;;;;;;;;;4762188;30;20060;-95
2022/04/30 13:52:23;;;;;;;9.68;5.85;;;;;;;;;;4762350;30;20055;-96
2022/04/30 13:54:51;;;;;;;7.82;6.43;;;;;;;;;;4753965;30;20052;-95
2022/04/30 13:57:29;;;;;;;11.20;6.05;;;;;;;;;;4745122;30;20098;-96
2022/04/30 14:00:24;;;;;;;9.95;6.00;;;;;;;;;;4746263;30;20150;-96
2022/04/30 14:03:01;;;;;;;;;;;;;;;;;;;;;
2022/04/30 14:05:47;;;;;;;10.60;5.65;;;;;;;;;;4743443;30;20048;-95
2022/04/30 14:08:15;;;;;;;7.95;5.50;;;;;;;;;;4745094;30;20052;-96
2022/04/30 14:10:45;;;;;;;6.13;5.43;;;;;;;;;;4744769;30;20048;-96
2022/04/30 14:16:24;;;;;;;10.65;6.45;;;;;;;;;;4727644;30;20105;-96
2022/04/30 14:18:59;;;;;;;6.57;5.05;;;;;;;;;;4712492;30;20060;-96
2022/04/30 14:21:28;;;;;;;9.27;5.32;;;;;;;;;;4713268;30;20068;-96
2022/04/30 14:24:01;;;;;;;9.45;6.75;;;;;;;;;;4711554;30;20068;-96
2022/04/30 14:26:47;;;;;;;7.13;6.03;;;;;;;;;;4710714;30;20065;-96
2022/04/30 14:29:19;;;;;;;9.50;6.07;;;;;;;;;;4711868;30;20072;-96
2022/04/30 14:34:48;;;;;;;6.18;5.22;;;;;;;;;;4708082;30;20057;-96
2022/04/30 14:37:14;;;;;;;8.35;5.88;;;;;;;;;;4694009;30;20059;-95
2022/04/30 14:39:43;;;;;;;6.72;5.57;;;;;;;;;;4696052;30;20099;-96
2022/04/30 14:42:13;;;;;;;8.18;5.72;;;;;;;;;;4709417;30;20049;-96
2022/04/30 14:44:50;;;;;;;6.93;5.28;;;;;;;;;;4682840;30;20065;-96
2022/04/30 14:47:19;;;;;;;7.10;5.00;;;;;;;;;;4692273;30;20093;-95
2022/04/30 14:50:06;;;;;;;9.02;5.65;;;;;;;;;;4692929;30;20049;-96
2022/04/30 14:52:52;;;;;;;13.27;5.05;;;;;;;;;;4692252;30;20146;-96
2022/04/30 14:56:12;;;;;;;7.10;5.72;;;;;;;;;;4692576;30;20572;-96
2022/04/30 14:58:39;;;;;;;7.40;5.18;;;;;;;;;;4704746;30;20061;-95
2022/04/30 15:04:45;;;;;;;6.22;5.35;;;;;;;;;;4602367;31;20144;-96
2022/04/30 15:07:26;;;;;;;;;;;;;;;;;;;;;
2022/04/30 15:10:24;;;;;;;7.05;5.32;;;;;;;;;;4590934;31;20075;-95
2022/04/30 15:13:06;;;;;;;;;;;;;;;;;;;;;
2022/04/30 15:15:53;;;;;;;8.30;5.78;;;;;;;;;;4587296;31;20073;-96
2022/04/30 15:19:14;;;;;;;;;;;;;;;;;;;;;
2022/04/30 15:21:54;;;;;;;;;;;;;;;;;;;;;
2022/04/30 15:25:04;;;;;;;10.40;4.95;;;;;;;;;;4527989;31;20069;-96
2022/04/30 15:32:33;;;;;;;9.27;4.82;;;;;;;;;;4586706;31;20146;-96
2022/04/30 15:35:39;;;;;;;5.78;4.72;;;;;;;;;;4562687;31;20061;-96
2022/04/30 15:38:39;;;;;;;5.15;4.18;;;;;;;;;;4588641;31;20060;-96
2022/04/30 15:41:31;;;;;;;;;;;;;;;;;;;;;
2022/04/30 15:44:29;;;;;;;6.05;4.32;;;;;;;;;;4688187;30;20066;-96
2022/04/30 15:53:47;;;;;;;7.30;3.92;;;;;;;;;;4691294;30;20046;-96
2022/04/30 15:56:02;;;;;;;;;;;;;;;;;;;;;
2022/04/30 16:04:50;;;;;;;5.90;4.15;;;;;;;;;;4660506;30;20109;-95
2022/04/30 16:07:33;;;;;;;;;;;;;;;;;;;;;
2022/04/30 16:13:47;;;;;;;6.78;4.45;;;;;;;;;;4654455;30;20058;-96
2022/04/30 16:16:29;;;;;;;7.85;6.18;;;;;;;;;;4626405;30;20059;-96
2022/04/30 16:19:30;;;;;;;5.80;5.10;;;;;;;;;;4611105;31;20139;-96
2022/04/30 16:22:07;;;;;;;6.15;5.38;;;;;;;;;;4590906;31;20163;-95
2022/04/30 16:24:55;;;;;;;;;;;;;;;;;;;;;
2022/04/30 16:31:23;;;;;;;;;;;;;;;;;;;;;
2022/04/30 16:34:29;;;;;;;;;;;;;;;;;;;;;
2022/04/30 16:37:46;;;;;;;9.48;4.70;;;;;;;;;;4539586;31;20077;-96
2022/04/30 16:40:13;;;;;;;8.73;5.63;;;;;;;;;;4553724;31;20069;-96
2022/04/30 16:42:45;;;;;;;10.55;5.72;;;;;;;;;;4542049;31;20061;-96
2022/04/30 16:58:03;;;;;;;8.38;5.50;;;;;;;;;;4507413;31;20096;-96
2022/04/30 17:17:51;;;;;;;8.90;5.57;;;;;;;;;;5992159;22;7065739;-95
2022/04/30 17:20:23;;;;;;;7.10;5.28;;;;;;;;;;6208044;23;20024;-93
2022/04/30 17:26:33;;;;;;;7.55;5.50;;;;;;;;;;6028331;23;20030;-96
2022/04/30 17:39:01;;;;;;;;;;;;;;;;;;;;;
2022/04/30 17:45:12;;;;;;;;;;;;;;;;;;;;;
2022/04/30 17:48:20;;;;;;;;;;;;;;;;;;;;;
2022/04/30 18:27:36;;;;;;;9.02;6.28;;;;;;;;;;6203703;23;20053;-96
2022/04/30 18:30:08;;;;;;;8.73;6.30;;;;;;;;;;6124102;23;20021;-95
2022/04/30 18:32:56;;;;;;;;;;;;;;;;;;;;;
2022/04/30 18:35:30;;;;;;;7.80;5.97;;;;;;;;;;6147056;23;20068;-96
2022/04/30 18:38:57;;;;;;;12.90;6.57;;;;;;;;;;6095130;23;20076;-96
2022/04/30 18:41:10;;;;;;;9.13;6.55;;;;;;;;;;6108984;23;20520;-95
2022/04/30 19:04:55;;;;;;;;;;;;;;;;;;;;;
2022/04/30 19:07:44;;;;;;;6.60;5.60;;;;;;;;;;6045457;23;20014;-95
2022/04/30 19:26:59;;;;;;;7.18;5.95;;;;;;;;;;6000500;22;6365330;-94
2022/04/30 19:32:28;;;;;;;9.40;6.28;;;;;;;;;;6143769;23;20022;-96
2022/04/30 19:35:12;;;;;;;;;;;;;;;;;;;;;
2022/04/30 19:44:20;;;;;;;9.70;6.20;;;;;;;;;;6028759;23;20027;-96
2022/04/30 19:46:56;;;;;;;11.18;6.95;;;;;;;;;;6008617;23;20030;-96
2022/04/30 19:52:48;;;;;;;14.10;7.90;;;;;;;;;;5977668;24;20024;-95
2022/04/30 20:06:09;;;;;;;12.43;9.77;;;;;;;;;;4979011;22;28823976;-95
2022/04/30 20:08:42;;;;;;;11.82;7.68;;;;;;;;;;6125282;23;20033;-96
2022/04/30 20:16:53;;;;;;;12.75;7.63;;;;;;;;;;6146490;23;20018;-95
2022/04/30 20:19:43;;;;;;;10.30;8.02;;;;;;;;;;6122090;23;20073;-96
2022/04/30 20:22:13;;;;;;;12.93;9.00;;;;;;;;;;6121687;23;20088;-95
2022/04/30 20:24:48;;;;;;;16.02;7.57;;;;;;;;;;6124411;23;20122;-96
2022/04/30 21:09:19;;;;;;;;;;;;;;;;;;;;;
2022/04/30 21:16:23;;;;;;;10.43;8.27;;;;;;;;;;6188997;22;20037;-93
2022/04/30 21:34:57;;;;;;;11.85;8.20;;;;;;;;;;6252503;22;20024;-95
2022/04/30 22:46:46;;;;;;;13.98;9.77;;;;;;;;;;6281070;22;20027;-93
2022/04/30 22:49:21;;;;;;;13.60;10.25;;;;;;;;;;6230417;22;20456;-94
2022/04/30 22:51:47;;;;;;;15.05;10.63;;;;;;;;;;6229286;22;20026;-93
2022/04/30 22:54:16;;;;;;;14.90;11.48;;;;;;;;;;6230654;22;20058;-93
2022/04/30 22:56:43;;;;;;;20.23;14.05;;;;;;;;;;6229702;22;20069;-94
2022/04/30 22:59:17;;;;;;;18.08;12.00;;;;;;;;;;6255913;22;20066;-94
2022/04/30 23:01:45;;;;;;;16.40;13.10;;;;;;;;;;6230815;22;20150;-94
2022/04/30 23:04:11;;;;;;;11.70;9.25;;;;;;;;;;6230030;22;20441;-92
2022/04/30 23:06:37;;;;;;;6.47;5.68;;;;;;;;;;6230207;22;20444;-93
2022/04/30 23:09:06;;;;;;;8.25;7.25;;;;;;;;;;6231074;22;20049;-94
2022/04/30 23:11:32;;;;;;;10.65;8.52;;;;;;;;;;6231751;22;20352;-95
2022/04/30 23:14:06;;;;;;;12.52;8.43;;;;;;;;;;6230406;22;20016;-94
2022/04/30 23:16:40;;;;;;;14.20;8.98;;;;;;;;;;6231414;22;20023;-95
2022/04/30 23:19:07;;;;;;;15.05;10.75;;;;;;;;;;6231082;22;20015;-95
2022/04/30 23:21:33;;;;;;;14.77;10.88;;;;;;;;;;6257645;22;20016;-94
2022/04/30 23:24:02;;;;;;;16.67;12.10;;;;;;;;;;6232773;22;20006;-95
2022/04/30 23:26:31;;;;;;;22.23;15.07;;;;;;;;;;6231385;22;20016;-95
2022/04/30 23:28:58;;;;;;;18.45;14.30;;;;;;;;;;6229536;22;20054;-96
2022/04/30 23:31:28;;;;;;;20.73;15.52;;;;;;;;;;6229746;22;20012;-95
2022/04/30 23:34:03;;;;;;;18.00;13.15;;;;;;;;;;6233190;22;20016;-95
2022/04/30 23:36:29;;;;;;;22.05;12.77;;;;;;;;;;6231946;22;20032;-95
2022/04/30 23:39:01;;;;;;;16.85;12.80;;;;;;;;;;6232704;22;20445;-95
2022/04/30 23:41:30;;;;;;;19.00;12.40;;;;;;;;;;6231950;22;20019;-94
2022/04/30 23:44:02;;;;;;;15.82;11.57;;;;;;;;;;6230861;22;20022;-94
2022/04/30 23:46:33;;;;;;;18.98;13.25;;;;;;;;;;6231550;22;20023;-95
2022/04/30 23:49:00;;;;;;;22.83;12.77;;;;;;;;;;6230699;22;20019;-94
2022/04/30 23:51:26;;;;;;;11.80;9.52;;;;;;;;;;6230132;22;20008;-93
2022/04/30 23:53:55;;;;;;;13.75;9.85;;;;;;;;;;6232513;22;20012;-95
2022/04/30 23:56:27;;;;;;;15.90;8.85;;;;;;;;;;6231379;22;20437;-93
2022/04/30 23:58:53;;;;;;;10.55;7.75;;;;;;;;;;6230180;22;20095;-92
